Time;durP1;ratioP1;P1;durP2;ratioP2;P2;SDS_P1;SDS_P2;PMS_P1;PMS_P2;Temp;Humidity;BMP_temperature;BMP_pressure;BME280_temperature;BME280_humidity;BME280_pressure;Samples;Min_cycle;Max_cycle;Signal;HPM_P1;HPM_P2
2023/11/03 00:02:30;;;;;;;3.15;2.30;;;24.70;52.50;;;;;;6210059;28;80547;-60
2023/11/03 00:05:30;;;;;;;4.50;2.50;;;24.70;52.30;;;;;;6210106;27;81825;-60
2023/11/03 00:08:31;;;;;;;2.42;2.03;;;24.70;52.60;;;;;;6179357;28;80415;-60
2023/11/03 00:11:31;;;;;;;4.50;2.20;;;24.70;52.60;;;;;;6190555;28;81258;-61
2023/11/03 00:14:32;;;;;;;2.97;2.10;;;24.70;52.80;;;;;;6164563;28;80927;-61
2023/11/03 00:17:32;;;;;;;5.88;2.38;;;24.70;52.90;;;;;;6151857;28;80707;-61
2023/11/03 00:20:33;;;;;;;1.98;1.80;;;24.70;52.70;;;;;;6156536;28;80527;-62
2023/11/03 00:23:33;;;;;;;3.03;2.20;;;24.70;52.80;;;;;;6188955;28;80509;-61
2023/11/03 00:26:34;;;;;;;3.47;2.15;;;24.70;53.00;;;;;;6156796;28;80638;-62
2023/11/03 00:29:34;;;;;;;1.98;1.73;;;24.60;52.80;;;;;;6180769;28;81735;-61
2023/11/03 00:32:35;;;;;;;3.08;2.00;;;24.60;53.10;;;;;;6175259;28;83335;-63
2023/11/03 00:35:36;;;;;;;3.95;2.03;;;24.60;53.50;;;;;;6178070;28;82237;-63
2023/11/03 00:38:36;;;;;;;2.80;1.95;;;24.60;52.90;;;;;;6201454;28;83451;-63
2023/11/03 00:41:37;;;;;;;2.70;1.90;;;24.70;53.60;;;;;;6176229;28;81291;-63
2023/11/03 00:44:37;;;;;;;2.28;1.80;;;24.70;53.10;;;;;;6162202;28;80528;-63
2023/11/03 00:47:38;;;;;;;3.72;2.13;;;24.70;53.40;;;;;;6195495;28;80761;-62
2023/11/03 00:50:38;;;;;;;3.03;2.50;;;24.70;53.40;;;;;;6190307;28;83009;-63
2023/11/03 00:53:39;;;;;;;2.97;1.98;;;24.70;53.30;;;;;;6178589;28;83487;-61
2023/11/03 00:56:40;;;;;;;3.80;2.00;;;24.70;53.30;;;;;;6191217;28;86526;-62
2023/11/03 00:59:40;;;;;;;2.45;2.03;;;24.70;53.20;;;;;;6152263;28;80997;-63
2023/11/03 01:02:43;;;;;;;2.92;1.90;;;24.70;53.30;;;;;;6161740;28;81497;-59
2023/11/03 01:05:44;;;;;;;3.30;2.30;;;24.60;53.50;;;;;;6182521;28;82643;-62
2023/11/03 01:08:45;;;;;;;2.42;2.13;;;24.60;53.20;;;;;;6195675;28;80968;-62
2023/11/03 01:11:47;;;;;;;2.10;1.90;;;24.60;53.60;;;;;;6201963;28;80256;-62
2023/11/03 01:14:51;;;;;;;2.83;1.98;;;24.60;53.20;;;;;;6226580;27;82874;-62
2023/11/03 01:17:51;;;;;;;3.65;2.00;;;24.60;52.90;;;;;;6184812;28;81592;-62
2023/11/03 01:20:52;;;;;;;2.70;1.88;;;24.70;53.20;;;;;;6178802;28;81228;-62
2023/11/03 01:23:52;;;;;;;3.25;1.85;;;24.60;52.80;;;;;;6175408;28;80560;-62
2023/11/03 01:26:53;;;;;;;2.10;1.67;;;24.60;52.90;;;;;;6156442;28;80597;-62
2023/11/03 01:29:53;;;;;;;2.67;2.08;;;24.60;53.00;;;;;;6161334;28;80491;-61
2023/11/03 01:32:54;;;;;;;2.35;1.70;;;24.60;53.00;;;;;;6157185;28;80955;-59
2023/11/03 01:35:54;;;;;;;3.38;2.10;;;24.70;53.40;;;;;;6173863;28;81577;-61
2023/11/03 01:38:55;;;;;;;1.95;1.70;;;24.70;53.50;;;;;;6156754;28;81821;-60
2023/11/03 01:41:56;;;;;;;2.60;2.15;;;24.70;53.50;;;;;;6168170;28;80691;-60
2023/11/03 01:44:57;;;;;;;2.63;1.90;;;24.70;53.40;;;;;;6171475;28;81358;-61
2023/11/03 01:47:57;;;;;;;1.88;1.70;;;24.70;53.40;;;;;;6194548;27;80205;-62
2023/11/03 01:50:58;;;;;;;4.03;2.10;;;24.70;53.50;;;;;;6180923;28;81916;-62
2023/11/03 01:53:59;;;;;;;4.45;1.90;;;24.70;53.40;;;;;;6174273;28;80280;-61
2023/11/03 01:57:00;;;;;;;3.97;2.20;;;24.70;53.50;;;;;;6168955;28;84875;-63
2023/11/03 02:00:00;;;;;;;3.63;1.83;;;24.70;53.30;;;;;;6176466;28;83159;-61
2023/11/03 02:03:01;;;;;;;2.55;2.03;;;24.70;53.40;;;;;;6178068;28;80834;-62
2023/11/03 02:06:03;;;;;;;3.22;2.00;;;24.70;53.40;;;;;;6177303;28;82815;-62
2023/11/03 02:09:05;;;;;;;5.72;2.35;;;24.70;53.30;;;;;;6178769;28;80668;-60
2023/11/03 02:12:05;;;;;;;2.40;1.80;;;24.70;53.30;;;;;;6176790;28;80247;-61
2023/11/03 02:15:06;;;;;;;1.90;1.70;;;24.70;53.40;;;;;;6178948;28;80498;-62
2023/11/03 02:18:10;;;;;;;3.45;1.83;;;24.70;53.70;;;;;;6178057;28;81456;-63
2023/11/03 02:21:10;;;;;;;1.70;1.60;;;24.70;53.50;;;;;;6191751;28;80412;-63
2023/11/03 02:24:11;;;;;;;2.45;1.85;;;24.60;53.40;;;;;;6166794;28;80331;-63
2023/11/03 02:27:11;;;;;;;3.67;2.30;;;24.60;53.30;;;;;;6178031;28;80940;-62
2023/11/03 02:30:12;;;;;;;2.10;1.70;;;24.60;53.40;;;;;;6175657;28;85880;-63
2023/11/03 02:33:12;;;;;;;2.65;1.73;;;24.60;53.30;;;;;;6190419;28;80268;-63
2023/11/03 02:36:13;;;;;;;2.17;1.83;;;24.60;53.60;;;;;;6187881;28;82321;-63
2023/11/03 02:39:14;;;;;;;2.28;1.95;;;24.60;53.40;;;;;;6189420;28;80506;-63
2023/11/03 02:42:16;;;;;;;2.40;1.90;;;24.60;53.60;;;;;;6187479;28;87085;-62
2023/11/03 02:45:16;;;;;;;3.53;2.28;;;24.60;53.50;;;;;;6174415;28;82706;-64
2023/11/03 02:48:17;;;;;;;3.25;1.77;;;24.60;53.80;;;;;;6174414;28;83684;-62
2023/11/03 02:51:18;;;;;;;2.42;1.70;;;24.60;53.50;;;;;;6174591;28;80377;-62
2023/11/03 02:54:18;;;;;;;2.83;1.83;;;24.50;53.60;;;;;;6176368;28;83344;-61
2023/11/03 02:57:19;;;;;;;2.35;1.77;;;24.50;53.60;;;;;;6176120;28;81526;-62
2023/11/03 03:00:19;;;;;;;2.65;1.83;;;24.50;54.30;;;;;;6165315;28;80409;-62
2023/11/03 03:03:20;;;;;;;2.60;1.85;;;24.50;53.60;;;;;;6196616;28;82934;-62
2023/11/03 03:06:21;;;;;;;2.92;2.30;;;24.50;53.70;;;;;;6218631;28;81422;-62
2023/11/03 03:09:23;;;;;;;2.08;1.70;;;24.50;53.70;;;;;;6221464;27;80318;-62
2023/11/03 03:12:23;;;;;;;3.50;2.47;;;24.50;53.70;;;;;;6202025;28;81577;-61
2023/11/03 03:15:24;;;;;;;3.05;1.88;;;24.50;53.70;;;;;;6226183;27;80775;-62
2023/11/03 03:18:25;;;;;;;3.67;2.00;;;24.50;53.60;;;;;;6220235;28;80393;-62
2023/11/03 03:21:26;;;;;;;2.65;1.90;;;24.50;53.60;;;;;;6224747;27;81027;-61
2023/11/03 03:24:26;;;;;;;2.60;2.05;;;24.50;53.60;;;;;;6223956;28;83080;-62
2023/11/03 03:27:27;;;;;;;2.35;2.03;;;24.60;53.70;;;;;;6225300;27;82471;-61
2023/11/03 03:30:27;;;;;;;3.00;2.15;;;24.60;54.10;;;;;;6214115;28;80931;-61
2023/11/03 03:33:28;;;;;;;3.28;1.95;;;24.60;54.20;;;;;;6204783;28;83214;-62
2023/11/03 03:36:28;;;;;;;3.20;2.30;;;24.60;54.20;;;;;;6214765;27;80384;-63
2023/11/03 03:39:29;;;;;;;2.50;1.73;;;24.60;54.00;;;;;;6226924;27;81589;-63
2023/11/03 03:42:30;;;;;;;3.08;2.20;;;24.60;54.20;;;;;;6215684;27;80432;-65
2023/11/03 03:45:30;;;;;;;2.28;1.83;;;24.70;54.30;;;;;;6222321;27;80393;-64
2023/11/03 03:48:30;;;;;;;3.58;2.15;;;24.70;54.30;;;;;;6221175;27;80727;-64
2023/11/03 03:51:31;;;;;;;2.95;1.92;;;24.60;54.20;;;;;;6215846;27;80218;-65
2023/11/03 03:54:31;;;;;;;2.53;1.98;;;24.60;54.20;;;;;;6223302;28;81007;-61
2023/11/03 03:57:32;;;;;;;5.18;2.03;;;24.70;54.20;;;;;;6183540;28;83133;-61
2023/11/03 04:00:33;;;;;;;2.50;1.63;;;24.60;54.00;;;;;;6173061;28;83878;-61
2023/11/03 04:03:33;;;;;;;3.20;2.10;;;24.60;54.40;;;;;;6208590;27;80352;-62
2023/11/03 04:06:34;;;;;;;3.97;2.10;;;24.60;54.20;;;;;;6180527;28;83239;-62
2023/11/03 04:09:34;;;;;;;2.95;1.90;;;24.60;54.10;;;;;;6196502;28;82817;-61
2023/11/03 04:12:35;;;;;;;3.83;1.92;;;24.60;54.10;;;;;;6199489;28;82060;-61
2023/11/03 04:15:35;;;;;;;2.45;1.95;;;24.60;54.10;;;;;;6200446;28;81046;-61
2023/11/03 04:18:36;;;;;;;4.20;2.60;;;24.60;54.40;;;;;;6178532;28;80329;-59
2023/11/03 04:21:37;;;;;;;3.15;1.70;;;24.60;54.20;;;;;;6186988;28;82464;-60
2023/11/03 04:24:37;;;;;;;2.55;2.30;;;24.60;54.30;;;;;;6186433;28;80938;-63
2023/11/03 04:27:39;;;;;;;2.55;1.90;;;24.50;54.40;;;;;;6199455;28;83180;-63
2023/11/03 04:30:39;;;;;;;3.08;2.00;;;24.50;54.20;;;;;;6181432;28;81081;-63
2023/11/03 04:33:40;;;;;;;2.30;1.85;;;24.50;54.20;;;;;;6193583;28;81341;-59
2023/11/03 04:36:40;;;;;;;2.85;2.15;;;24.60;54.00;;;;;;6179516;28;80731;-61
2023/11/03 04:39:41;;;;;;;3.05;2.00;;;24.60;54.10;;;;;;6176925;28;82709;-63
2023/11/03 04:42:41;;;;;;;2.03;1.75;;;24.60;54.20;;;;;;6189176;28;80017;-61
2023/11/03 04:45:41;;;;;;;2.70;1.88;;;24.60;54.00;;;;;;6192990;28;91244;-69
2023/11/03 04:48:42;;;;;;;2.58;1.95;;;24.60;53.70;;;;;;6198889;28;80818;-61
2023/11/03 04:51:43;;;;;;;2.22;1.40;;;24.60;53.80;;;;;;6197819;28;80304;-61
2023/11/03 04:54:43;;;;;;;2.35;1.75;;;24.60;53.70;;;;;;6188995;28;80260;-61
2023/11/03 04:57:43;;;;;;;3.95;1.88;;;24.60;53.70;;;;;;6187199;28;80429;-64
2023/11/03 05:00:45;;;;;;;3.45;1.73;;;24.60;53.60;;;;;;6196910;28;80445;-61
2023/11/03 05:03:45;;;;;;;6.32;2.17;;;24.60;54.50;;;;;;6198264;28;80416;-64
2023/11/03 05:06:46;;;;;;;4.38;1.70;;;24.70;54.50;;;;;;6205339;28;80559;-59
2023/11/03 05:09:47;;;;;;;3.38;2.35;;;24.70;54.70;;;;;;6197760;28;81761;-60
2023/11/03 05:12:48;;;;;;;3.40;1.63;;;24.70;54.60;;;;;;6199091;28;82334;-60
2023/11/03 05:15:48;;;;;;;6.00;1.60;;;24.70;55.00;;;;;;6184207;28;81331;-59
2023/11/03 05:18:49;;;;;;;3.80;1.52;;;24.80;55.30;;;;;;6190969;28;80463;-60
2023/11/03 05:21:49;;;;;;;6.82;1.60;;;24.80;55.40;;;;;;6220271;28;80459;-60
2023/11/03 05:24:50;;;;;;;2.55;1.58;;;24.80;55.60;;;;;;6209814;28;86715;-62
2023/11/03 05:27:50;;;;;;;4.60;1.88;;;24.70;55.30;;;;;;6200940;28;80677;-61
2023/11/03 05:30:51;;;;;;;5.35;1.55;;;24.80;55.50;;;;;;6197256;28;81397;-61
2023/11/03 05:33:52;;;;;;;5.82;2.35;;;24.80;55.60;;;;;;6191748;28;80636;-57
2023/11/03 05:36:52;;;;;;;3.72;2.17;;;24.80;55.40;;;;;;6181055;28;81435;-65
2023/11/03 05:39:53;;;;;;;8.18;2.38;;;24.80;55.00;;;;;;6178729;28;80530;-60
2023/11/03 05:42:53;;;;;;;3.95;1.98;;;24.80;54.80;;;;;;6190578;28;80900;-63
2023/11/03 05:45:54;;;;;;;10.88;2.40;;;24.80;55.20;;;;;;6184968;28;80350;-59
2023/11/03 05:48:54;;;;;;;23.77;3.30;;;24.80;55.40;;;;;;6178351;28;81469;-62
2023/11/03 05:51:55;;;;;;;6.47;2.00;;;24.80;55.80;;;;;;6169350;28;80677;-59
2023/11/03 05:54:56;;;;;;;8.57;2.28;;;24.80;55.40;;;;;;6171044;28;80468;-61
2023/11/03 05:57:56;;;;;;;11.82;2.28;;;24.80;55.30;;;;;;6177596;28;80976;-59
2023/11/03 06:00:57;;;;;;;14.52;2.45;;;24.80;55.40;;;;;;6181169;28;80489;-62
2023/11/03 06:03:57;;;;;;;11.32;2.67;;;24.70;56.00;;;;;;6177268;28;81364;-60
2023/11/03 06:06:58;;;;;;;6.72;3.33;;;24.80;56.10;;;;;;6184759;28;80710;-60
2023/11/03 06:09:58;;;;;;;7.57;2.95;;;24.70;55.90;;;;;;6213457;28;82155;-60
2023/11/03 06:12:59;;;;;;;7.90;3.75;;;24.70;56.10;;;;;;6201179;27;80969;-59
2023/11/03 06:15:59;;;;;;;4.22;2.40;;;24.70;55.80;;;;;;6223865;28;83868;-58
2023/11/03 06:19:00;;;;;;;4.97;3.10;;;24.70;55.30;;;;;;6201776;28;86061;-58
2023/11/03 06:22:00;;;;;;;3.35;2.38;;;24.60;54.80;;;;;;6185957;28;83171;-60
2023/11/03 06:25:01;;;;;;;9.27;2.60;;;24.60;54.50;;;;;;6195871;28;80373;-57
2023/11/03 06:28:01;;;;;;;4.53;2.90;;;24.60;54.30;;;;;;6167128;28;80732;-58
2023/11/03 06:31:57;;;;;;;6.70;2.92;;;24.60;54.10;;;;;;6232429;27;76864;-57
2023/11/03 06:34:58;;;;;;;3.80;2.78;;;24.60;53.80;;;;;;6168082;28;80625;-58
2023/11/03 06:37:58;;;;;;;7.18;2.58;;;24.60;53.70;;;;;;6155951;28;83241;-56
2023/11/03 06:40:59;;;;;;;5.22;2.65;;;24.60;53.40;;;;;;6182132;28;81911;-58
2023/11/03 06:44:01;;;;;;;5.35;2.20;;;24.60;53.20;;;;;;6168093;28;80999;-62
2023/11/03 06:47:01;;;;;;;5.63;2.17;;;24.60;53.10;;;;;;6182616;28;81090;-61
2023/11/03 06:50:03;;;;;;;2.42;2.00;;;24.60;53.20;;;;;;6188505;28;80589;-61
2023/11/03 06:53:03;;;;;;;3.08;2.10;;;24.70;53.10;;;;;;6184877;28;80364;-61
2023/11/03 06:56:03;;;;;;;2.75;1.98;;;24.60;53.10;;;;;;6178000;28;80963;-64
2023/11/03 06:59:06;;;;;;;2.80;2.33;;;24.70;52.90;;;;;;6168091;28;81602;-63
2023/11/03 07:02:08;;;;;;;9.57;2.95;;;24.60;52.90;;;;;;6175739;28;82341;-63
2023/11/03 07:05:11;;;;;;;2.67;1.90;;;24.60;52.10;;;;;;6170011;28;81598;-65
2023/11/03 07:08:12;;;;;;;2.47;1.77;;;24.60;51.60;;;;;;6171752;28;82367;-64
2023/11/03 07:11:12;;;;;;;2.55;2.28;;;24.50;51.90;;;;;;6176920;28;81727;-65
2023/11/03 07:14:13;;;;;;;3.20;2.08;;;24.60;52.00;;;;;;6176751;28;81549;-64
2023/11/03 07:17:13;;;;;;;3.90;2.30;;;24.50;51.80;;;;;;6173740;28;81658;-64
2023/11/03 07:20:14;;;;;;;5.75;2.45;;;24.60;51.80;;;;;;6174119;28;81783;-63
2023/11/03 07:23:17;;;;;;;8.77;2.55;;;24.50;51.40;;;;;;6176528;28;81751;-65
2023/11/03 07:26:18;;;;;;;7.18;1.73;;;24.60;51.20;;;;;;6176785;28;81557;-60
2023/11/03 07:29:18;;;;;;;3.80;1.90;;;24.60;51.00;;;;;;6168090;28;82307;-60
2023/11/03 07:32:19;;;;;;;4.25;2.08;;;24.50;50.80;;;;;;6176201;28;80898;-59
2023/11/03 07:35:20;;;;;;;2.22;1.80;;;24.60;50.90;;;;;;6171181;28;83716;-59
2023/11/03 07:38:20;;;;;;;3.60;1.90;;;24.60;51.00;;;;;;6172893;28;81554;-63
2023/11/03 07:41:22;;;;;;;6.97;1.83;;;24.60;50.90;;;;;;6172343;28;81123;-60
2023/11/03 07:44:22;;;;;;;5.63;2.00;;;24.50;50.80;;;;;;6158926;28;81148;-59
2023/11/03 07:47:23;;;;;;;2.22;1.83;;;24.50;50.90;;;;;;6150319;28;81528;-60
2023/11/03 07:50:23;;;;;;;3.00;2.00;;;24.50;50.80;;;;;;6158704;28;81453;-59
2023/11/03 07:53:24;;;;;;;3.42;1.90;;;24.50;50.70;;;;;;6159351;28;81889;-61
2023/11/03 07:56:24;;;;;;;3.75;2.10;;;24.60;50.50;;;;;;6159163;28;80765;-60
2023/11/03 07:59:25;;;;;;;3.38;1.85;;;24.50;51.20;;;;;;6155638;28;82148;-60
2023/11/03 08:02:25;;;;;;;3.17;1.75;;;24.50;50.70;;;;;;6157326;28;83726;-58
2023/11/03 08:05:26;;;;;;;1.88;1.67;;;24.60;50.60;;;;;;6158442;28;81754;-59
2023/11/03 08:08:26;;;;;;;4.47;2.08;;;24.60;50.40;;;;;;6156158;28;81154;-59
2023/11/03 08:11:27;;;;;;;4.22;1.92;;;24.50;50.60;;;;;;6160409;28;81143;-59
2023/11/03 08:14:29;;;;;;;3.28;2.17;;;24.60;50.60;;;;;;6158446;28;82221;-60
2023/11/03 08:17:29;;;;;;;3.72;2.15;;;24.60;50.80;;;;;;6152571;28;81536;-59
2023/11/03 08:20:30;;;;;;;4.38;1.60;;;24.60;50.80;;;;;;6157622;28;81487;-59
2023/11/03 08:23:33;;;;;;;2.35;1.52;;;24.60;50.80;;;;;;6158262;28;81539;-59
2023/11/03 08:26:33;;;;;;;3.75;2.05;;;24.60;50.80;;;;;;6156665;28;81793;-59
2023/11/03 08:29:34;;;;;;;3.63;2.10;;;24.60;50.80;;;;;;6155853;28;81534;-60
2023/11/03 08:32:34;;;;;;;4.32;1.77;;;24.60;50.90;;;;;;6154427;28;82264;-59
2023/11/03 08:35:35;;;;;;;5.72;1.92;;;24.60;50.90;;;;;;6156153;28;87205;-60
2023/11/03 08:38:36;;;;;;;2.10;1.67;;;24.60;51.00;;;;;;6155054;28;80700;-60
2023/11/03 08:41:37;;;;;;;4.45;1.83;;;24.60;51.00;;;;;;6154804;28;80749;-62
2023/11/03 08:44:39;;;;;;;3.35;2.25;;;24.60;50.90;;;;;;6172585;28;81425;-61
2023/11/03 08:47:42;;;;;;;3.58;2.35;;;24.60;50.80;;;;;;6172966;28;81158;-65
2023/11/03 08:50:43;;;;;;;6.25;2.75;;;24.60;50.70;;;;;;6180016;28;80706;-73
2023/11/03 08:53:44;;;;;;;4.20;2.10;;;24.60;51.00;;;;;;6178245;28;81166;-72
2023/11/03 08:56:44;;;;;;;6.65;2.85;;;24.60;50.90;;;;;;6180335;28;80571;-69
2023/11/03 08:59:47;;;;;;;3.75;1.85;;;24.60;51.00;;;;;;6167139;28;80521;-61
2023/11/03 09:02:48;;;;;;;4.40;2.35;;;24.60;51.40;;;;;;6173926;28;80479;-58
2023/11/03 09:05:49;;;;;;;4.00;2.13;;;24.60;50.80;;;;;;6175755;28;80479;-59
2023/11/03 09:08:50;;;;;;;2.65;1.95;;;24.60;51.10;;;;;;6178876;28;80537;-55
2023/11/03 09:11:50;;;;;;;4.30;2.13;;;24.60;50.80;;;;;;6177208;28;80759;-59
2023/11/03 09:14:51;;;;;;;3.58;1.98;;;24.60;51.70;;;;;;6174472;28;80449;-56
2023/11/03 09:17:52;;;;;;;6.13;2.55;;;24.50;51.60;;;;;;6174379;28;80556;-57
2023/11/03 09:20:52;;;;;;;4.72;2.33;;;24.40;50.40;;;;;;6173392;28;80637;-58
2023/11/03 09:23:53;;;;;;;5.95;2.63;;;24.40;50.70;;;;;;6178694;28;80612;-55
2023/11/03 09:26:54;;;;;;;4.53;3.20;;;24.30;50.00;;;;;;6179976;28;80485;-58
2023/11/03 09:29:54;;;;;;;3.33;2.40;;;24.30;49.90;;;;;;6173106;28;84147;-62
2023/11/03 09:32:55;;;;;;;4.93;2.45;;;24.10;50.20;;;;;;6177297;28;80422;-60
2023/11/03 09:35:55;;;;;;;5.55;2.58;;;24.00;50.20;;;;;;6177898;28;80806;-67
2023/11/03 09:38:56;;;;;;;5.03;2.10;;;24.10;50.70;;;;;;6154706;28;82673;-69
2023/11/03 09:41:56;;;;;;;4.78;2.33;;;23.90;50.50;;;;;;6158343;28;80863;-68
2023/11/03 09:44:58;;;;;;;5.78;2.20;;;24.00;50.20;;;;;;6152504;28;84086;-63
2023/11/03 09:47:59;;;;;;;5.65;1.83;;;24.00;50.20;;;;;;6171947;28;80834;-64
2023/11/03 09:50:59;;;;;;;4.78;2.20;;;24.00;50.10;;;;;;6161435;28;89714;-64
2023/11/03 09:54:00;;;;;;;3.70;1.92;;;23.80;50.60;;;;;;6172764;28;80091;-59
2023/11/03 09:57:00;;;;;;;4.28;1.55;;;23.80;50.30;;;;;;6172020;28;80376;-59
2023/11/03 10:00:01;;;;;;;4.22;1.83;;;23.80;50.30;;;;;;6174422;28;81325;-62
2023/11/03 10:03:02;;;;;;;3.38;2.08;;;23.80;50.40;;;;;;6171943;28;80559;-59
2023/11/03 10:06:03;;;;;;;3.35;1.80;;;23.80;50.60;;;;;;6172725;28;84139;-60
2023/11/03 10:09:03;;;;;;;2.70;1.55;;;23.80;50.50;;;;;;6172936;28;80956;-59
2023/11/03 10:12:04;;;;;;;5.20;1.90;;;23.70;50.60;;;;;;6174545;28;80507;-58
2023/11/03 10:15:04;;;;;;;2.35;1.55;;;23.70;50.50;;;;;;6173373;28;81225;-60
2023/11/03 10:18:05;;;;;;;2.92;1.80;;;23.60;50.40;;;;;;6176176;28;80398;-61
2023/11/03 10:21:08;;;;;;;3.05;2.00;;;23.40;50.40;;;;;;6176053;28;81736;-60
2023/11/03 10:24:09;;;;;;;2.72;1.90;;;23.10;50.60;;;;;;6175327;28;80677;-59
2023/11/03 10:27:11;;;;;;;3.00;2.03;;;22.60;51.50;;;;;;6175269;28;80882;-59
2023/11/03 10:30:12;;;;;;;4.80;1.90;;;22.30;52.30;;;;;;6176906;28;80599;-60
2023/11/03 10:33:14;;;;;;;4.97;1.80;;;22.30;52.50;;;;;;6175860;28;83670;-60
2023/11/03 10:36:14;;;;;;;3.15;2.03;;;22.50;52.80;;;;;;6176498;28;80263;-60
2023/11/03 10:39:15;;;;;;;2.90;2.08;;;22.80;52.30;;;;;;6176089;28;82639;-60
2023/11/03 10:42:15;;;;;;;4.32;2.17;;;22.80;51.80;;;;;;6175961;28;80920;-60
2023/11/03 10:45:16;;;;;;;3.95;1.85;;;22.50;52.20;;;;;;6176039;28;80277;-61
2023/11/03 10:48:17;;;;;;;3.28;2.40;;;22.30;52.60;;;;;;6175950;28;80208;-61
2023/11/03 10:51:17;;;;;;;6.25;3.17;;;22.40;52.80;;;;;;6176036;28;80352;-61
2023/11/03 10:54:19;;;;;;;3.28;2.08;;;22.40;52.70;;;;;;6163066;28;82814;-60
2023/11/03 10:57:20;;;;;;;3.80;2.08;;;22.70;52.70;;;;;;6175203;28;81330;-60
2023/11/03 11:00:20;;;;;;;6.20;2.22;;;22.80;52.20;;;;;;6176346;28;80638;-60
2023/11/03 11:03:21;;;;;;;4.50;1.95;;;22.50;52.40;;;;;;6175613;28;80407;-60
2023/11/03 11:06:21;;;;;;;3.50;2.00;;;22.60;52.30;;;;;;6175996;28;80408;-61
2023/11/03 11:09:22;;;;;;;3.80;2.22;;;22.60;52.40;;;;;;6175418;28;80465;-61
2023/11/03 11:12:22;;;;;;;6.38;2.20;;;22.70;52.00;;;;;;6175093;28;80540;-60
2023/11/03 11:15:23;;;;;;;3.72;2.30;;;22.90;52.20;;;;;;6176844;28;80405;-59
2023/11/03 11:18:24;;;;;;;4.32;2.45;;;23.00;51.90;;;;;;6177920;28;80638;-61
2023/11/03 11:21:25;;;;;;;4.00;2.45;;;23.10;52.00;;;;;;6179545;28;86944;-59
2023/11/03 11:24:25;;;;;;;3.35;2.15;;;23.10;51.90;;;;;;6178255;28;80713;-60
2023/11/03 11:27:26;;;;;;;7.45;2.50;;;23.10;51.60;;;;;;6177521;28;80710;-60
2023/11/03 11:30:26;;;;;;;3.75;1.90;;;23.10;51.40;;;;;;6170980;28;80729;-61
2023/11/03 11:33:28;;;;;;;2.97;2.22;;;23.00;52.10;;;;;;6158732;28;82076;-60
2023/11/03 11:36:29;;;;;;;9.32;2.20;;;23.10;51.90;;;;;;6169261;28;82272;-60
2023/11/03 11:39:29;;;;;;;7.72;2.63;;;23.10;51.80;;;;;;6171151;28;84442;-59
2023/11/03 11:42:30;;;;;;;13.07;2.30;;;22.90;52.30;;;;;;6167958;28;82620;-65
2023/11/03 11:45:31;;;;;;;5.25;2.20;;;22.90;52.30;;;;;;6150194;28;86905;-65
2023/11/03 11:48:31;;;;;;;6.28;2.30;;;23.10;52.40;;;;;;6170199;28;81407;-66
2023/11/03 11:51:32;;;;;;;9.60;2.67;;;23.20;52.10;;;;;;6177998;28;80570;-66
2023/11/03 11:54:32;;;;;;;6.63;2.70;;;23.20;52.00;;;;;;6178896;28;80532;-66
2023/11/03 11:57:33;;;;;;;12.55;2.58;;;23.30;51.70;;;;;;6145542;28;83031;-68
2023/11/03 12:00:34;;;;;;;5.07;2.20;;;23.30;51.80;;;;;;6151782;28;82259;-68
2023/11/03 12:03:34;;;;;;;7.47;2.35;;;23.50;52.30;;;;;;6178094;28;82643;-69
2023/11/03 12:06:35;;;;;;;3.28;2.13;;;23.50;52.40;;;;;;6184269;28;87496;-66
2023/11/03 12:09:35;;;;;;;2.70;2.08;;;23.20;52.00;;;;;;6179315;28;80680;-67
2023/11/03 12:12:36;;;;;;;5.45;2.78;;;22.70;53.00;;;;;;6172032;28;83315;-67
2023/11/03 12:15:36;;;;;;;2.83;2.10;;;22.40;53.60;;;;;;6171815;28;85137;-65
2023/11/03 12:18:37;;;;;;;12.13;2.25;;;22.10;54.10;;;;;;6140425;28;86441;-69
2023/11/03 12:21:37;;;;;;;4.10;2.30;;;22.10;53.90;;;;;;6144340;28;81263;-60
2023/11/03 12:24:40;;;;;;;5.20;2.17;;;22.00;54.60;;;;;;6157076;28;83410;-62
2023/11/03 12:27:42;;;;;;;3.17;1.98;;;22.00;54.50;;;;;;6157553;28;81628;-61
2023/11/03 12:30:43;;;;;;;7.03;2.33;;;22.20;54.40;;;;;;6150696;28;81938;-59
2023/11/03 12:33:44;;;;;;;6.75;1.70;;;22.20;54.30;;;;;;6156941;28;81510;-61
2023/11/03 12:36:45;;;;;;;4.32;2.15;;;22.10;54.40;;;;;;6157202;28;80607;-62
2023/11/03 12:39:46;;;;;;;2.28;1.92;;;22.20;54.80;;;;;;6155936;28;81612;-60
2023/11/03 12:42:47;;;;;;;2.20;1.77;;;22.40;54.90;;;;;;6153900;28;81412;-63
2023/11/03 12:45:48;;;;;;;2.65;1.75;;;22.60;54.90;;;;;;6158060;28;82522;-60
2023/11/03 12:48:49;;;;;;;1.95;1.75;;;22.70;54.80;;;;;;6159024;28;81580;-62
2023/11/03 12:51:53;;;;;;;3.08;2.08;;;22.70;54.50;;;;;;6154533;28;82070;-62
2023/11/03 12:54:54;;;;;;;2.33;1.60;;;22.40;54.80;;;;;;6158616;28;81206;-61
2023/11/03 12:57:54;;;;;;;2.75;1.73;;;22.60;54.90;;;;;;6156411;28;81701;-64
2023/11/03 13:00:57;;;;;;;4.93;2.03;;;22.70;54.50;;;;;;6153256;28;80723;-67
2023/11/03 13:03:57;;;;;;;3.05;2.05;;;22.70;54.50;;;;;;6154962;28;81619;-68
2023/11/03 13:06:58;;;;;;;3.10;1.90;;;22.90;54.10;;;;;;6157337;28;81411;-67
2023/11/03 13:09:59;;;;;;;7.97;2.17;;;23.00;54.20;;;;;;6155587;28;81457;-66
2023/11/03 13:12:59;;;;;;;3.97;2.28;;;23.00;53.90;;;;;;6155804;28;81680;-65
2023/11/03 13:16:03;;;;;;;2.88;1.90;;;22.90;54.00;;;;;;6158742;28;81118;-63
2023/11/03 13:19:03;;;;;;;3.30;1.90;;;23.10;53.90;;;;;;6156230;28;81640;-64
2023/11/03 13:22:05;;;;;;;4.68;1.90;;;23.10;53.40;;;;;;6152762;28;83606;-64
2023/11/03 13:25:06;;;;;;;2.72;2.10;;;23.10;53.50;;;;;;6157999;28;81317;-64
2023/11/03 13:28:07;;;;;;;2.03;1.45;;;23.20;53.40;;;;;;6153334;28;81571;-65
2023/11/03 13:31:08;;;;;;;2.65;1.45;;;23.30;53.40;;;;;;6150415;28;81298;-65
2023/11/03 13:34:12;;;;;;;2.97;2.15;;;23.40;53.30;;;;;;6156520;28;83216;-67
2023/11/03 13:37:13;;;;;;;4.32;1.88;;;23.40;53.40;;;;;;6155505;28;81017;-64
2023/11/03 13:40:13;;;;;;;2.45;1.70;;;23.40;53.20;;;;;;6150907;28;82149;-65
2023/11/03 13:43:14;;;;;;;3.33;1.60;;;23.50;53.30;;;;;;6152739;28;82048;-67
2023/11/03 13:46:20;;;;;;;2.30;1.70;;;23.50;53.40;;;;;;6155969;28;81604;-65
2023/11/03 13:49:20;;;;;;;2.45;1.63;;;23.50;53.10;;;;;;6156443;28;80958;-64
2023/11/03 13:52:21;;;;;;;2.80;1.50;;;23.60;53.10;;;;;;6151529;28;82311;-68
2023/11/03 13:55:23;;;;;;;7.18;2.15;;;23.60;53.00;;;;;;6153258;28;82158;-65
2023/11/03 13:58:25;;;;;;;3.42;1.73;;;23.60;53.00;;;;;;6155376;28;81294;-70
2023/11/03 14:01:28;;;;;;;14.57;1.60;;;23.60;52.90;;;;;;6150285;28;85170;-67
2023/11/03 14:04:28;;;;;;;3.70;1.83;;;23.60;53.00;;;;;;6150798;28;83123;-67
2023/11/03 14:07:29;;;;;;;2.45;1.70;;;23.70;53.00;;;;;;6154219;28;82038;-66
2023/11/03 14:10:29;;;;;;;2.92;2.15;;;23.70;52.90;;;;;;6144647;28;81057;-69
2023/11/03 14:13:30;;;;;;;2.53;1.50;;;23.70;52.90;;;;;;6174631;28;80749;-70
2023/11/03 14:16:30;;;;;;;3.92;1.88;;;23.70;52.80;;;;;;6176823;28;82640;-70
2023/11/03 14:19:31;;;;;;;2.35;1.70;;;23.80;52.90;;;;;;6178281;28;82510;-69
2023/11/03 14:22:31;;;;;;;2.15;1.60;;;23.80;53.10;;;;;;6188370;28;80381;-67
2023/11/03 14:25:32;;;;;;;5.43;1.88;;;23.80;52.90;;;;;;6171704;28;80417;-69
2023/11/03 14:28:34;;;;;;;4.60;1.55;;;23.80;53.00;;;;;;6177433;28;81037;-60
2023/11/03 14:31:35;;;;;;;2.10;1.90;;;23.90;52.80;;;;;;6184655;28;80444;-62
2023/11/03 14:34:35;;;;;;;2.13;1.52;;;23.80;52.70;;;;;;6180555;28;80919;-59
2023/11/03 14:37:36;;;;;;;2.03;1.60;;;23.80;52.60;;;;;;6183896;28;80323;-60
2023/11/03 14:40:40;;;;;;;3.28;1.80;;;23.80;52.70;;;;;;6192330;28;79999;-59
2023/11/03 14:43:40;;;;;;;6.03;1.90;;;23.80;52.70;;;;;;6179255;28;82886;-60
2023/11/03 14:46:41;;;;;;;3.50;1.77;;;23.80;52.60;;;;;;6176694;28;80792;-67
2023/11/03 14:49:42;;;;;;;3.38;1.75;;;23.80;52.80;;;;;;6177520;28;85039;-68
2023/11/03 14:52:43;;;;;;;4.15;2.05;;;23.80;53.40;;;;;;6181552;28;80454;-67
2023/11/03 14:55:43;;;;;;;3.25;2.13;;;23.80;52.70;;;;;;6195696;28;80911;-67
2023/11/03 14:58:43;;;;;;;2.60;1.65;;;23.80;52.70;;;;;;6180774;28;80449;-67
2023/11/03 15:01:45;;;;;;;2.97;1.80;;;23.90;52.70;;;;;;6179938;28;81086;-66
2023/11/03 15:04:46;;;;;;;4.00;2.22;;;23.90;52.70;;;;;;6180940;28;86774;-66
2023/11/03 15:07:46;;;;;;;5.18;1.90;;;23.90;52.70;;;;;;6176379;28;80818;-63
2023/11/03 15:10:47;;;;;;;2.58;1.85;;;23.90;52.70;;;;;;6195207;28;80883;-63
2023/11/03 15:13:48;;;;;;;5.32;1.80;;;23.90;52.60;;;;;;6205745;28;80674;-64
2023/11/03 15:16:48;;;;;;;4.88;1.73;;;23.90;52.50;;;;;;6192233;28;80942;-65
2023/11/03 15:19:49;;;;;;;4.88;2.10;;;23.90;52.40;;;;;;6185930;28;81244;-65
2023/11/03 15:22:51;;;;;;;5.88;1.90;;;23.80;52.60;;;;;;6200389;28;82638;-65
2023/11/03 15:25:52;;;;;;;3.53;1.92;;;23.90;52.50;;;;;;6196578;28;80815;-61
2023/11/03 15:28:54;;;;;;;2.83;1.90;;;23.90;52.50;;;;;;6189961;28;80679;-63
2023/11/03 15:31:55;;;;;;;4.35;2.45;;;23.90;52.70;;;;;;6192183;28;81182;-64
2023/11/03 15:34:56;;;;;;;6.45;2.42;;;23.90;52.90;;;;;;6199020;28;86316;-63
2023/11/03 15:37:56;;;;;;;5.60;2.10;;;23.90;53.70;;;;;;6201918;28;80958;-63
2023/11/03 15:40:57;;;;;;;5.18;2.10;;;23.90;53.00;;;;;;6201463;28;80793;-63